createdAt,value
2023-05-21T00:03:46.978Z,51.40
2023-05-21T00:08:50.128Z,52.83
2023-05-21T00:13:53.048Z,53.13
2023-05-21T00:18:58.194Z,52.90
2023-05-21T00:24:01.424Z,50.83
2023-05-21T00:29:04.377Z,54.85
2023-05-21T00:34:08.627Z,50.60
2023-05-21T00:39:11.623Z,48.65
2023-05-21T00:44:16.811Z,48.95
2023-05-21T00:49:22.377Z,50.95
2023-05-21T00:54:25.399Z,49.75
2023-05-21T00:59:28.438Z,50.20
2023-05-21T01:04:33.346Z,50.33
2023-05-21T01:09:36.460Z,48.22
2023-05-21T01:14:40.069Z,51.58
2023-05-21T01:19:45.633Z,52.55
2023-05-21T01:24:51.486Z,51.50
2023-05-21T01:29:55.186Z,53.97
2023-05-21T01:35:05.697Z,50.03
2023-05-21T01:40:16.278Z,51.70
2023-05-21T01:45:20.382Z,50.78
2023-05-21T01:50:25.052Z,50.45
2023-05-21T01:55:30.746Z,53.15
2023-05-21T02:00:34.606Z,52.20
2023-05-21T02:05:37.935Z,50.20
2023-05-21T02:10:42.878Z,52.08
2023-05-21T02:15:45.852Z,50.05
2023-05-21T02:20:51.075Z,51.42
2023-05-21T02:25:55.504Z,50.83
2023-05-21T02:30:58.464Z,50.58
2023-05-21T02:36:01.407Z,48.63
2023-05-21T02:41:05.895Z,52.50
2023-05-21T02:46:08.882Z,50.85
2023-05-21T02:51:12.015Z,50.45
2023-05-21T02:56:16.372Z,51.15
2023-05-21T03:01:19.576Z,51.80
2023-05-21T03:06:22.551Z,52.63
2023-05-21T03:11:26.832Z,52.40
2023-05-21T03:16:29.920Z,54.10
2023-05-21T03:21:33.801Z,57.53
2023-05-21T03:26:38.067Z,51.50
2023-05-21T03:31:41.454Z,52.47
2023-05-21T03:36:47.330Z,54.50
2023-05-21T03:41:53.378Z,51.03
2023-05-21T03:47:03.669Z,52.75
2023-05-21T03:52:09.760Z,51.08
2023-05-21T03:57:26.130Z,51.67
2023-05-21T04:02:29.144Z,53.10
2023-05-21T04:07:32.386Z,52.53
2023-05-21T04:12:38.101Z,53.80
2023-05-21T04:17:41.625Z,53.25
2023-05-21T04:22:44.822Z,50.85
2023-05-21T04:27:50.043Z,52.45
2023-05-21T04:32:54.840Z,50.83
2023-05-21T04:37:57.926Z,50.88
2023-05-21T04:43:02.657Z,54.72
2023-05-21T04:48:06.331Z,52.45
2023-05-21T04:53:09.366Z,53.03
2023-05-21T04:58:13.895Z,50.72
2023-05-21T05:03:25.146Z,52.65
2023-05-21T05:08:28.248Z,52.75
2023-05-21T05:13:32.573Z,56.65
2023-05-21T05:18:36.403Z,52.92
2023-05-21T05:23:39.559Z,54.90
2023-05-21T05:28:46.334Z,55.40
2023-05-21T05:33:49.661Z,54.42
2023-05-21T05:38:53.322Z,54.63
2023-05-21T05:43:57.675Z,53.72
2023-05-21T05:49:03.413Z,53.63
2023-05-21T05:54:06.619Z,53.78
2023-05-21T05:59:11.560Z,51.20
2023-05-21T06:04:15.667Z,55.28
2023-05-21T06:09:18.923Z,60.17
2023-05-21T06:14:23.172Z,59.40
2023-05-21T06:19:26.250Z,55.53
2023-05-21T06:24:29.504Z,56.88
2023-05-21T06:29:34.044Z,54.90
2023-05-21T06:34:38.299Z,56.90
2023-05-21T06:39:41.326Z,54.85
2023-05-21T06:44:46.059Z,54.70
2023-05-21T06:50:12.981Z,57.20
2023-05-21T06:55:16.398Z,65.45
2023-05-21T07:00:39.209Z,59.13
2023-05-21T07:05:42.416Z,57.45
2023-05-21T07:10:46.177Z,60.42
2023-05-21T07:15:50.815Z,58.60
2023-05-21T07:20:53.824Z,58.63
2023-05-21T07:25:57.157Z,58.47
2023-05-21T07:31:02.302Z,61.08
2023-05-21T07:36:11.892Z,59.45
2023-05-21T07:41:18.406Z,59.85
2023-05-21T07:46:23.760Z,59.10
2023-05-21T07:51:30.968Z,62.00
2023-05-21T07:56:33.980Z,58.03
2023-05-21T08:01:38.567Z,62.95
2023-05-21T08:06:41.579Z,59.95
2023-05-21T08:11:45.701Z,59.78
2023-05-21T08:16:50.080Z,57.70
2023-05-21T08:21:53.333Z,60.03
2023-05-21T08:26:57.852Z,56.75
2023-05-21T08:32:02.516Z,57.50
2023-05-21T08:37:05.926Z,59.50
2023-05-21T08:42:37.378Z,59.70
2023-05-21T08:47:45.132Z,57.67
2023-05-21T08:52:49.251Z,59.13
2023-05-21T08:57:54.553Z,59.72
2023-05-21T09:03:02.124Z,58.15
2023-05-21T09:08:09.093Z,59.88
2023-05-21T09:13:21.068Z,57.75
2023-05-21T09:18:27.912Z,56.65
2023-05-21T09:23:39.103Z,57.50
2023-05-21T09:28:43.454Z,62.20
2023-05-21T09:33:51.970Z,53.50
2023-05-21T09:38:58.395Z,58.83
2023-05-21T09:44:02.512Z,59.20
2023-05-21T09:49:08.096Z,61.30
2023-05-21T09:54:18.894Z,60.92
2023-05-21T09:59:22.345Z,56.15
2023-05-21T10:04:25.688Z,62.42
2023-05-21T10:09:31.112Z,63.05
2023-05-21T10:14:35.764Z,58.72
2023-05-21T10:19:39.635Z,58.47
2023-05-21T10:24:44.576Z,56.38
2023-05-21T10:29:48.882Z,59.05
2023-05-21T10:34:54.271Z,55.75
2023-05-21T10:39:58.897Z,56.00
2023-05-21T10:45:13.052Z,55.50
2023-05-21T10:50:30.084Z,57.90
2023-05-21T10:55:47.194Z,55.97
2023-05-21T11:00:50.690Z,56.13
2023-05-21T11:05:55.444Z,53.80
2023-05-21T11:11:01.541Z,55.95
2023-05-21T11:16:14.436Z,55.33
2023-05-21T11:21:19.630Z,55.95
2023-05-21T11:26:28.801Z,57.20
2023-05-21T11:31:38.583Z,60.45
2023-05-21T11:36:43.202Z,54.03
2023-05-21T11:41:58.292Z,55.42
2023-05-21T11:47:01.467Z,53.30
2023-05-21T11:52:05.465Z,53.97
2023-05-21T11:57:10.142Z,52.88
2023-05-21T12:02:17.098Z,56.42
2023-05-21T12:07:21.024Z,52.50
2023-05-21T12:12:35.332Z,54.97
2023-05-21T12:17:45.097Z,52.65
2023-05-21T12:22:49.904Z,53.03
2023-05-21T12:27:58.812Z,52.95
2023-05-21T12:33:03.124Z,53.30
2023-05-21T12:38:09.746Z,57.65
2023-05-21T12:43:14.244Z,52.47
2023-05-21T12:48:17.190Z,51.42
2023-05-21T12:53:20.100Z,52.25
2023-05-21T12:58:24.428Z,52.08
2023-05-21T13:03:27.949Z,51.55
2023-05-21T13:08:30.866Z,53.58
2023-05-21T13:13:35.132Z,52.60
2023-05-21T13:18:38.039Z,51.83
2023-05-21T13:23:41.053Z,54.38
2023-05-21T13:28:45.317Z,52.10
2023-05-21T13:33:48.280Z,51.13
2023-05-21T13:38:51.285Z,53.72
2023-05-21T13:43:55.550Z,52.92
2023-05-21T13:48:58.517Z,52.15
2023-05-21T13:54:01.644Z,51.70
2023-05-21T13:59:05.914Z,50.75
2023-05-21T14:04:08.835Z,52.38
2023-05-21T14:09:12.129Z,52.83
2023-05-21T14:14:19.076Z,52.35
2023-05-21T14:19:22.119Z,51.38
2023-05-21T14:24:25.149Z,51.80
2023-05-21T14:29:29.450Z,50.85
2023-05-21T14:34:32.348Z,51.17
2023-05-21T14:39:35.508Z,50.78
2023-05-21T14:44:39.745Z,51.30
2023-05-21T14:49:42.655Z,50.95
2023-05-21T14:54:45.647Z,50.85
2023-05-21T14:59:50.112Z,51.28
2023-05-21T15:04:52.972Z,51.17
2023-05-21T15:09:55.936Z,51.53
2023-05-21T15:15:00.275Z,51.28
2023-05-21T15:20:04.591Z,52.42
2023-05-21T15:25:08.424Z,51.33
2023-05-21T15:30:13.387Z,51.08
2023-05-21T15:35:30.493Z,51.03
2023-05-21T15:40:33.639Z,50.80
2023-05-21T15:45:38.357Z,51.45
2023-05-21T15:50:41.787Z,50.55
2023-05-21T15:55:50.657Z,49.83
2023-05-21T16:00:54.950Z,52.15
2023-05-21T16:06:04.306Z,51.15
2023-05-21T16:11:07.280Z,50.75
2023-05-21T16:16:13.683Z,51.08
2023-05-21T16:21:17.097Z,51.72
2023-05-21T16:26:21.439Z,51.17
2023-05-21T16:31:25.851Z,50.78
2023-05-21T16:36:28.821Z,50.70
2023-05-21T16:41:31.769Z,50.65
2023-05-21T16:46:36.089Z,50.42
2023-05-21T16:51:39.055Z,50.42
2023-05-21T16:56:42.000Z,50.88
2023-05-21T17:01:46.540Z,50.22
2023-05-21T17:06:49.498Z,50.60
2023-05-21T17:11:52.478Z,51.10
2023-05-21T17:16:56.780Z,50.97
2023-05-21T17:21:59.738Z,51.10
2023-05-21T17:27:02.741Z,50.28
2023-05-21T17:32:07.639Z,50.92
2023-05-21T17:37:10.577Z,50.67
2023-05-21T17:42:13.534Z,50.75
2023-05-21T17:47:17.878Z,52.17
2023-05-21T17:52:20.784Z,51.47
2023-05-21T17:57:29.601Z,51.22
2023-05-21T18:02:33.884Z,51.38
2023-05-21T18:07:37.839Z,51.13
2023-05-21T18:12:42.713Z,51.38
2023-05-21T18:17:53.232Z,52.42
2023-05-21T18:22:56.189Z,50.60
2023-05-21T18:28:00.164Z,51.38
2023-05-21T18:33:04.493Z,51.40
2023-05-21T18:38:09.958Z,51.38
2023-05-21T18:43:14.146Z,51.75
2023-05-21T18:48:18.486Z,51.25
2023-05-21T18:53:21.434Z,50.95
2023-05-21T18:58:24.622Z,51.25
2023-05-21T19:03:28.880Z,51.25
2023-05-21T19:08:31.774Z,50.30
2023-05-21T19:13:35.672Z,51.13
2023-05-21T19:18:42.771Z,51.40
2023-05-21T19:23:53.036Z,51.97
2023-05-21T19:28:57.111Z,51.40
2023-05-21T19:34:01.426Z,51.35
2023-05-21T19:39:05.109Z,51.35
2023-05-21T19:44:08.056Z,51.15
2023-05-21T19:49:14.073Z,52.55
2023-05-21T19:54:17.108Z,51.22
2023-05-21T19:59:20.075Z,51.80
2023-05-21T20:04:24.461Z,51.78
2023-05-21T20:09:27.505Z,51.40
2023-05-21T20:14:33.406Z,51.25
2023-05-21T20:19:37.860Z,51.08
2023-05-21T20:24:41.025Z,51.35
2023-05-21T20:29:43.930Z,51.67
2023-05-21T20:35:02.190Z,50.42
2023-05-21T20:40:07.559Z,50.60
2023-05-21T20:45:12.827Z,50.53
2023-05-21T20:50:18.356Z,50.25
2023-05-21T20:55:21.784Z,49.30
2023-05-21T21:00:24.926Z,48.85
2023-05-21T21:05:29.219Z,50.80
2023-05-21T21:10:33.448Z,50.45
2023-05-21T21:15:36.927Z,49.88
2023-05-21T21:20:42.611Z,49.50
2023-05-21T21:25:45.726Z,49.67
2023-05-21T21:30:48.788Z,52.78
2023-05-21T21:35:53.043Z,49.90
2023-05-21T21:40:55.962Z,51.20
2023-05-21T21:45:58.907Z,51.63
2023-05-21T21:51:03.229Z,52.05
2023-05-21T21:56:06.597Z,55.00
2023-05-21T22:01:09.605Z,51.88
2023-05-21T22:06:13.893Z,50.80
2023-05-21T22:11:16.933Z,50.67
2023-05-21T22:16:20.630Z,49.40
2023-05-21T22:21:27.155Z,51.47
2023-05-21T22:26:30.562Z,49.47
2023-05-21T22:31:33.580Z,51.08
2023-05-21T22:36:38.829Z,50.50
2023-05-21T22:41:42.062Z,51.03
2023-05-21T22:46:45.061Z,52.08
2023-05-21T22:51:50.995Z,49.67
2023-05-21T22:56:53.913Z,49.90
2023-05-21T23:01:57.320Z,51.85
2023-05-21T23:07:01.664Z,47.83
2023-05-21T23:12:05.109Z,49.53
2023-05-21T23:17:08.040Z,48.92
2023-05-21T23:22:12.340Z,49.47
2023-05-21T23:27:16.286Z,50.72
2023-05-21T23:32:19.213Z,48.45
2023-05-21T23:37:23.990Z,49.60
2023-05-21T23:42:26.924Z,49.28
2023-05-21T23:47:29.851Z,48.85
2023-05-21T23:52:34.173Z,52.78
2023-05-21T23:57:37.265Z,48.72
